Time;durP1;ratioP1;P1;durP2;ratioP2;P2;SDS_P1;SDS_P2;PMS_P1;PMS_P2;Temp;Humidity;BMP_temperature;BMP_pressure;BME280_temperature;BME280_humidity;BME280_pressure;Samples;Min_cycle;Max_cycle;Signal;HPM_P1;HPM_P2
2022/12/16 00:01:58;;;;;;;1.08;0.50;;;;;;;0.05;95.09;101139.91;5092077;27;99697;-31
2022/12/16 00:04:24;;;;;;;0.40;0.28;;;;;;;0.02;95.43;101145.28;5092009;27;97827;-32
2022/12/16 00:06:49;;;;;;;0.50;0.50;;;;;;;0.06;95.26;101152.34;5092265;27;96454;-31
2022/12/16 00:09:14;;;;;;;0.98;0.75;;;;;;;0.07;95.64;101154.09;5091460;27;96768;-33
2022/12/16 00:11:40;;;;;;;0.32;0.20;;;;;;;0.14;95.77;101162.00;5091755;27;99135;-31
2022/12/16 00:14:05;;;;;;;0.17;0.17;;;;;;;0.16;95.56;101161.97;5091745;27;104999;-31
2022/12/16 00:16:31;;;;;;;0.47;0.47;;;;;;;0.19;95.34;101172.56;5091169;27;96638;-31
2022/12/16 00:18:56;;;;;;;0.05;0.05;;;;;;;0.21;95.89;101173.41;5091756;27;96763;-31
2022/12/16 00:21:27;;;;;;;0.00;0.00;;;;;;;0.29;96.25;101173.34;5091348;27;113189;-32
2022/12/16 00:23:52;;;;;;;0.00;0.00;;;;;;;0.29;95.79;101171.56;5048971;27;1197779;-31
2022/12/16 00:26:18;;;;;;;0.05;0.05;;;;;;;0.27;96.26;101162.69;5092969;27;96578;-31
2022/12/16 00:28:43;;;;;;;0.32;0.32;;;;;;;0.30;95.61;101161.78;5093219;27;102246;-31
2022/12/16 00:31:08;;;;;;;0.00;0.00;;;;;;;0.31;95.56;101164.41;5092988;27;98716;-31
2022/12/16 00:33:34;;;;;;;0.10;0.10;;;;;;;0.32;95.83;101168.84;5093116;27;112593;-31
2022/12/16 00:35:59;;;;;;;0.32;0.32;;;;;;;0.31;95.24;101169.75;5093410;27;96433;-31
2022/12/16 00:38:25;;;;;;;0.10;0.10;;;;;;;0.29;95.61;101166.22;5093040;27;96785;-32
2022/12/16 00:40:51;;;;;;;0.82;0.15;;;;;;;0.30;95.33;101177.75;5073820;27;100770;-32
2022/12/16 00:43:16;;;;;;;0.55;0.28;;;;;;;0.28;95.22;101179.56;5092779;27;99121;-32
2022/12/16 00:45:41;;;;;;;0.08;0.05;;;;;;;0.28;95.55;101174.22;5092879;27;96594;-32
2022/12/16 00:48:07;;;;;;;0.00;0.00;;;;;;;0.29;95.29;101184.88;5093172;27;96854;-32
2022/12/16 00:50:34;;;;;;;0.55;0.00;;;;;;;0.29;95.61;101184.00;5093019;27;98358;-32
2022/12/16 00:52:59;;;;;;;0.00;0.00;;;;;;;0.30;95.45;101196.41;5074140;27;100775;-31
2022/12/16 00:55:24;;;;;;;0.10;0.10;;;;;;;0.31;95.77;101199.06;5093117;27;96581;-31
2022/12/16 00:57:50;;;;;;;0.13;0.13;;;;;;;0.33;96.11;101185.69;5093410;27;96745;-31
2022/12/16 01:00:17;;;;;;;0.10;0.10;;;;;;;0.36;95.80;101191.00;5092803;27;99543;-31
2022/12/16 01:02:44;;;;;;;0.00;0.00;;;;;;;0.35;95.89;101184.75;5074073;27;100817;-32
2022/12/16 01:05:12;;;;;;;0.35;0.25;;;;;;;0.38;95.62;101181.19;5073429;27;97305;-33
2022/12/16 01:07:37;;;;;;;0.47;0.40;;;;;;;0.39;95.88;101194.50;5074091;27;96899;-32
2022/12/16 01:10:05;;;;;;;0.00;0.00;;;;;;;0.38;95.98;101186.50;5092682;27;98162;-32
2022/12/16 01:12:31;;;;;;;0.05;0.05;;;;;;;0.37;95.65;101192.75;5092394;27;99424;-32
2022/12/16 01:14:56;;;;;;;0.00;0.00;;;;;;;0.40;95.42;101206.03;5074147;27;96530;-31
2022/12/16 01:17:24;;;;;;;0.35;0.15;;;;;;;0.38;95.72;101207.81;5074075;27;96768;-32
2022/12/16 01:19:50;;;;;;;0.00;0.00;;;;;;;0.36;95.62;101210.53;5092755;27;98175;-32
2022/12/16 01:22:16;;;;;;;0.20;0.20;;;;;;;0.36;95.84;101210.53;5077753;27;101648;-31
2022/12/16 01:24:43;;;;;;;0.00;0.00;;;;;;;0.37;95.66;101214.94;5095743;27;96871;-31
2022/12/16 01:27:08;;;;;;;0.05;0.05;;;;;;;0.35;95.48;101215.88;5077425;27;96794;-31
2022/12/16 01:29:33;;;;;;;0.10;0.10;;;;;;;0.32;95.63;101216.78;5095423;27;98348;-31
2022/12/16 01:31:59;;;;;;;0.00;0.00;;;;;;;0.32;95.89;101211.47;5095665;27;103688;-32
2022/12/16 01:34:24;;;;;;;0.10;0.10;;;;;;;0.35;95.90;101226.53;5096261;27;96595;-33
2022/12/16 01:36:49;;;;;;;0.08;0.08;;;;;;;0.35;95.70;101232.72;5095512;27;104284;-31
2022/12/16 01:39:15;;;;;;;0.32;0.05;;;;;;;0.33;95.66;101231.00;5095712;27;104032;-31
2022/12/16 01:41:40;;;;;;;0.00;0.00;;;;;;;0.32;95.55;101242.56;5095812;27;102111;-31
2022/12/16 01:44:17;;;;;;;0.05;0.05;;;;;;;0.30;95.51;101247.91;5095617;27;101125;-31
2022/12/16 01:46:48;;;;;;;0.30;0.30;;;;;;;0.29;95.56;101250.59;5077563;27;96800;-31
2022/12/16 01:49:25;;;;;;;1.10;0.38;;;;;;;0.27;95.46;101247.06;5076913;27;101159;-31
2022/12/16 01:51:54;;;;;;;0.00;0.00;;;;;;;0.27;96.08;101253.28;5076922;27;101092;-31
2022/12/16 01:54:25;;;;;;;0.03;0.03;;;;;;;0.26;95.96;101256.81;5076623;27;97268;-31
2022/12/16 01:56:57;;;;;;;0.00;0.00;;;;;;;0.26;95.89;101262.16;5076974;27;97099;-31
2022/12/16 01:59:26;;;;;;;0.00;0.00;;;;;;;0.25;95.82;101263.06;5095227;27;98157;-32
2022/12/16 02:01:51;;;;;;;0.10;0.10;;;;;;;0.22;96.15;101268.44;5076890;27;101086;-31
2022/12/16 02:04:17;;;;;;;0.03;0.03;;;;;;;0.22;95.87;101273.75;5095328;27;105088;-32
2022/12/16 02:06:42;;;;;;;0.00;0.00;;;;;;;0.19;95.93;101264.03;5095373;27;96766;-31
2022/12/16 02:09:10;;;;;;;0.10;0.10;;;;;;;0.20;95.82;101264.91;5094938;27;106553;-31
2022/12/16 02:11:52;;;;;;;0.43;0.32;;;;;;;0.23;95.54;101272.84;5077029;27;100854;-31
2022/12/16 02:14:30;;;;;;;0.00;0.00;;;;;;;0.20;95.95;101268.44;5095321;27;96627;-31
2022/12/16 02:17:19;;;;;;;0.15;0.15;;;;;;;0.21;95.67;101282.63;5095365;27;96622;-31
2022/12/16 02:20:03;;;;;;;0.00;0.00;;;;;;;0.20;95.55;101279.09;5075696;27;101351;-31
2022/12/16 02:23:02;;;;;;;0.00;0.00;;;;;;;0.19;95.58;101279.09;5094842;27;99372;-32
2022/12/16 02:26:01;;;;;;;0.00;0.00;;;;;;;0.19;95.84;101295.09;5076135;27;96780;-31
2022/12/16 02:28:41;;;;;;;0.00;0.00;;;;;;;0.18;95.69;101288.00;5095224;27;96815;-32
2022/12/16 02:31:28;;;;;;;0.00;0.00;;;;;;;0.15;95.77;101285.38;5094569;27;97995;-31
2022/12/16 02:34:05;;;;;;;0.00;0.00;;;;;;;0.16;95.70;101284.47;5095368;27;96857;-31
2022/12/16 02:36:58;;;;;;;0.20;0.10;;;;;;;0.15;95.20;101285.38;5095354;27;96441;-31
2022/12/16 02:39:36;;;;;;;0.20;0.20;;;;;;;0.13;95.15;101289.84;5095538;27;96486;-31
2022/12/16 02:42:15;;;;;;;0.17;0.00;;;;;;;0.11;95.15;101286.31;5076134;27;100804;-31
2022/12/16 02:44:54;;;;;;;2.45;0.88;;;;;;;0.08;95.15;101287.22;5076149;27;100970;-32
2022/12/16 02:47:19;;;;;;;0.00;0.00;;;;;;;0.09;95.19;101286.31;5075393;27;96961;-32
2022/12/16 02:49:49;;;;;;;0.65;0.43;;;;;;;0.09;95.23;101293.44;5094772;27;96717;-31
2022/12/16 02:52:19;;;;;;;0.13;0.13;;;;;;;0.08;95.02;101297.00;5075841;27;101492;-31
2022/12/16 02:54:45;;;;;;;0.38;0.38;;;;;;;0.03;94.74;101293.53;5075753;27;101395;-31
2022/12/16 02:57:47;;;;;;;0.52;0.43;;;;;;;0.04;94.67;101304.13;5075919;27;96732;-33
2022/12/16 03:00:18;;;;;;;0.10;0.10;;;;;;;0.00;94.89;101297.09;5094762;27;96954;-33
2022/12/16 03:03:01;;;;;;;0.00;0.00;;;;;;;0.03;94.71;101312.16;5075711;27;101399;-31
2022/12/16 03:05:31;;;;;;;0.00;0.00;;;;;;;0.03;94.70;101318.38;5094812;27;97771;-31
2022/12/16 03:08:03;;;;;;;0.00;0.00;;;;;;;0.02;94.34;101318.38;5094804;27;96567;-32
2022/12/16 03:10:36;;;;;;;0.22;0.20;;;;;;;-0.01;94.76;101317.50;5075956;27;96745;-32
2022/12/16 03:13:03;;;;;;;0.00;0.00;;;;;;;0.00;94.15;101326.41;5093890;27;97996;-31
2022/12/16 03:15:33;;;;;;;0.00;0.00;;;;;;;-0.02;94.26;101333.50;5075670;27;100438;-32
2022/12/16 03:17:59;;;;;;;0.00;0.00;;;;;;;-0.03;94.58;101335.25;5075614;27;96657;-32
2022/12/16 03:20:42;;;;;;;0.22;0.20;;;;;;;-0.05;94.06;101334.44;5075613;27;96923;-31
2022/12/16 03:23:15;;;;;;;0.10;0.10;;;;;;;-0.07;94.26;101338.88;5075340;27;100610;-31
2022/12/16 03:25:44;;;;;;;0.00;0.00;;;;;;;-0.08;94.42;101333.56;5093288;27;99839;-31
2022/12/16 03:28:36;;;;;;;0.00;0.00;;;;;;;-0.11;94.53;101342.47;5075581;27;96629;-31
2022/12/16 03:31:18;;;;;;;0.10;0.10;;;;;;;-0.11;93.84;101350.44;5094602;27;96581;-31
2022/12/16 03:33:52;;;;;;;0.05;0.03;;;;;;;-0.13;93.87;101346.03;5075474;27;101044;-31
2022/12/16 03:36:21;;;;;;;0.10;0.10;;;;;;;-0.13;93.93;101354.91;5075148;27;100714;-31
2022/12/16 03:38:49;;;;;;;0.00;0.00;;;;;;;-0.17;93.76;101361.13;5093353;27;96735;-33
2022/12/16 03:41:18;;;;;;;0.00;0.00;;;;;;;-0.14;93.85;101362.88;5075207;27;96706;-31
2022/12/16 03:43:43;;;;;;;0.00;0.00;;;;;;;-0.15;93.71;101361.13;5074754;27;101093;-32
2022/12/16 03:46:10;;;;;;;0.00;0.00;;;;;;;-0.14;93.45;101366.47;5093805;27;98030;-32
2022/12/16 03:48:35;;;;;;;0.65;0.30;;;;;;;-0.17;93.66;101363.81;5093766;27;96709;-31
2022/12/16 03:51:01;;;;;;;0.00;0.00;;;;;;;-0.14;93.39;101369.13;5093726;27;96828;-31
2022/12/16 03:53:27;;;;;;;0.00;0.00;;;;;;;-0.12;93.47;101377.97;5093598;27;98021;-33
2022/12/16 03:55:53;;;;;;;0.10;0.10;;;;;;;-0.11;93.16;101379.75;5093955;27;97951;-32
2022/12/16 03:58:19;;;;;;;0.00;0.00;;;;;;;-0.15;92.96;101375.31;5074687;27;96681;-32
2022/12/16 04:00:45;;;;;;;0.10;0.10;;;;;;;-0.16;92.63;101373.56;5093525;27;96786;-31
2022/12/16 04:03:10;;;;;;;0.22;0.20;;;;;;;-0.17;92.78;101370.91;5074457;27;100884;-31
2022/12/16 04:05:37;;;;;;;0.10;0.10;;;;;;;-0.19;92.66;101376.28;5093500;27;97765;-31
2022/12/16 04:08:02;;;;;;;0.00;0.00;;;;;;;-0.19;92.67;101381.59;5093522;27;96573;-32
2022/12/16 04:24:20;;;;;;;0.08;0.05;;;;;;;-0.21;92.24;101391.38;5093159;27;97040;-32
2022/12/16 04:29:32;;;;;;;0.00;0.00;;;;;;;-0.24;92.24;101394.03;5093034;27;96763;-31
2022/12/16 04:31:59;;;;;;;0.20;0.05;;;;;;;-0.23;91.93;101406.47;5093426;27;96725;-31
2022/12/16 04:34:24;;;;;;;0.00;0.00;;;;;;;-0.24;92.03;101407.34;5074476;27;101165;-33
